createdAt,value
2019-04-23T00:00:21.734Z,8.17
2019-04-23T00:02:53.447Z,11.97
2019-04-23T00:08:07.125Z,6.67
2019-04-23T00:10:33.518Z,12.07
2019-04-23T00:12:59.285Z,9.97
2019-04-23T00:16:10.803Z,11.67
2019-04-23T00:18:37.006Z,6.70
2019-04-23T00:21:40.426Z,5.37
2019-04-23T00:27:32.041Z,6.40
2019-04-23T00:29:56.118Z,7.43
2019-04-23T00:35:00.794Z,8.83
2019-04-23T00:40:00.950Z,11.30
2019-04-23T00:42:40.436Z,10.23
2019-04-23T00:45:00.259Z,5.90
2019-04-23T00:47:52.102Z,9.27
2019-04-23T00:50:12.336Z,6.97
2019-04-23T00:52:38.834Z,22.53
2019-04-23T00:55:14.752Z,8.43
2019-04-23T00:57:43.952Z,6.40
2019-04-23T01:00:24.312Z,6.17
2019-04-23T01:02:45.766Z,7.17
2019-04-23T01:05:18.319Z,11.27
2019-04-23T01:13:00.812Z,7.30
2019-04-23T01:15:34.021Z,8.73
2019-04-23T01:18:06.637Z,9.50
2019-04-23T01:22:57.100Z,9.60
2019-04-23T01:25:57.625Z,11.73
2019-04-23T01:31:16.576Z,14.80
2019-04-23T01:34:04.138Z,7.43
2019-04-23T01:36:54.658Z,16.20
2019-04-23T01:39:11.653Z,8.83
2019-04-23T01:41:42.678Z,11.83
2019-04-23T01:44:14.156Z,10.33
2019-04-23T01:49:18.373Z,9.13
2019-04-23T01:51:58.432Z,9.80
2019-04-23T01:54:17.529Z,12.73
2019-04-23T01:56:49.482Z,17.00
2019-04-23T01:59:39.981Z,12.00
2019-04-23T02:07:04.441Z,12.20
2019-04-23T02:09:37.176Z,10.30
2019-04-23T02:11:57.709Z,9.50
2019-04-23T02:14:51.599Z,8.50
2019-04-23T02:17:23.348Z,9.73
2019-04-23T02:20:01.026Z,10.20
2019-04-23T02:23:04.666Z,9.47
2019-04-23T02:28:42.448Z,11.77
2019-04-23T02:33:35.850Z,10.23
2019-04-23T02:36:03.843Z,10.40
2019-04-23T02:43:59.153Z,11.80
2019-04-23T02:46:06.076Z,11.00
2019-04-23T02:48:45.936Z,16.60
2019-04-23T02:51:10.352Z,10.93
2019-04-23T02:53:55.907Z,12.20
2019-04-23T02:56:23.761Z,11.13
2019-04-23T03:06:47.784Z,13.83
2019-04-23T03:09:12.773Z,10.80
2019-04-23T03:17:03.450Z,13.77
2019-04-23T03:22:30.210Z,12.20
2019-04-23T03:28:12.240Z,14.43
2019-04-23T03:34:01.061Z,17.40
2019-04-23T03:43:41.201Z,14.63
2019-04-23T03:48:46.792Z,18.10
2019-04-23T03:51:26.030Z,15.77
2019-04-23T03:59:08.681Z,18.40
2019-04-23T04:04:20.233Z,18.67
2019-04-23T04:06:37.515Z,18.27
2019-04-23T04:09:17.274Z,21.97
2019-04-23T04:11:33.421Z,20.83
2019-04-23T04:19:18.340Z,24.50
2019-04-23T04:21:39.339Z,24.27
2019-04-23T04:26:51.072Z,25.30
2019-04-23T04:31:45.725Z,24.20
2019-04-23T04:37:21.765Z,26.20
2019-04-23T04:46:59.292Z,22.73
2019-04-23T04:49:31.443Z,25.10
2019-04-23T04:52:14.169Z,23.93
2019-04-23T04:54:55.765Z,23.23
2019-04-23T04:57:36.029Z,25.57
2019-04-23T05:00:13.335Z,22.03
2019-04-23T05:05:20.528Z,22.63
2019-04-23T05:08:26.360Z,26.73
2019-04-23T05:10:21.692Z,24.80
2019-04-23T05:15:08.983Z,28.77
2019-04-23T05:18:17.451Z,27.47
2019-04-23T05:20:50.689Z,26.33
2019-04-23T05:23:16.491Z,25.70
2019-04-23T05:25:38.885Z,29.00
2019-04-23T05:30:44.562Z,25.23
2019-04-23T05:33:18.961Z,29.60
2019-04-23T05:36:05.988Z,25.43
2019-04-23T05:38:29.133Z,25.40
2019-04-23T05:40:53.652Z,25.17
2019-04-23T05:43:20.964Z,24.53
2019-04-23T05:45:46.570Z,24.60
2019-04-23T05:48:37.635Z,24.97
2019-04-23T05:53:45.061Z,24.43
2019-04-23T05:56:13.282Z,25.20
2019-04-23T05:58:54.520Z,22.63
2019-04-23T06:09:14.315Z,24.60
2019-04-23T06:11:52.501Z,29.30
2019-04-23T06:16:49.939Z,23.10
2019-04-23T06:19:18.941Z,24.10
2019-04-23T06:24:29.021Z,21.33
2019-04-23T06:27:00.711Z,22.83
2019-04-23T06:34:36.398Z,24.80
2019-04-23T06:37:03.508Z,29.23
2019-04-23T06:42:05.989Z,18.93
2019-04-23T06:44:45.509Z,21.10
2019-04-23T06:47:42.907Z,21.33
2019-04-23T06:49:50.910Z,19.20
2019-04-23T06:55:01.159Z,18.10
2019-04-23T06:57:39.685Z,21.50
2019-04-23T07:00:04.262Z,22.50
2019-04-23T07:02:35.793Z,20.80
2019-04-23T07:07:55.208Z,19.63
2019-04-23T07:10:07.196Z,24.17
2019-04-23T07:15:26.344Z,21.17
2019-04-23T07:17:44.835Z,20.57
2019-04-23T07:20:15.140Z,17.33
2019-04-23T07:22:53.887Z,19.90
2019-04-23T07:25:18.979Z,20.10
2019-04-23T07:27:49.252Z,20.37
2019-04-23T07:30:31.529Z,16.93
2019-04-23T07:33:04.272Z,31.10
2019-04-23T07:35:30.512Z,22.10
2019-04-23T07:38:16.357Z,17.67
2019-04-23T07:40:43.035Z,16.73
2019-04-23T07:44:08.571Z,18.33
2019-04-23T07:46:40.870Z,25.43
2019-04-23T07:49:11.495Z,18.57
2019-04-23T07:51:46.743Z,25.23
2019-04-23T07:54:18.941Z,23.97
2019-04-23T07:56:58.583Z,18.97
2019-04-23T07:59:21.082Z,20.00
2019-04-23T08:01:49.603Z,19.30
2019-04-23T08:04:29.213Z,21.60
2019-04-23T08:07:01.183Z,20.43
2019-04-23T08:09:37.317Z,22.43
2019-04-23T08:12:02.627Z,19.70
2019-04-23T08:14:42.617Z,21.10
2019-04-23T08:17:04.058Z,17.67
2019-04-23T08:19:53.068Z,19.40
2019-04-23T08:27:43.881Z,18.50
2019-04-23T08:30:17.385Z,28.93
2019-04-23T08:33:02.325Z,26.50
2019-04-23T08:35:37.145Z,23.27
2019-04-23T08:40:35.537Z,22.80
2019-04-23T08:43:42.714Z,20.37
2019-04-23T08:46:29.715Z,19.50
2019-04-23T08:48:55.834Z,18.70
2019-04-23T08:51:38.590Z,18.10
2019-04-23T08:54:15.171Z,24.87
2019-04-23T08:59:02.309Z,26.63
2019-04-23T09:01:38.080Z,23.30
2019-04-23T09:04:00.419Z,18.30
2019-04-23T09:06:27.688Z,27.20
2019-04-23T09:09:10.445Z,27.00
2019-04-23T09:11:49.061Z,23.80
2019-04-23T09:14:20.635Z,27.30
2019-04-23T09:16:46.899Z,25.30
2019-04-23T09:19:20.023Z,25.80
2019-04-23T09:21:50.397Z,19.30
2019-04-23T09:24:09.556Z,18.03
2019-04-23T09:26:56.174Z,21.30
2019-04-23T09:29:23.109Z,18.33
2019-04-23T09:35:15.025Z,18.37
2019-04-23T09:37:58.235Z,20.07
2019-04-23T09:43:31.485Z,17.93
2019-04-23T09:46:17.649Z,26.73
2019-04-23T09:48:51.419Z,22.30
2019-04-23T09:51:17.680Z,26.53
2019-04-23T09:53:57.703Z,16.70
2019-04-23T09:56:22.389Z,20.30
2019-04-23T09:58:52.528Z,25.43
2019-04-23T10:03:46.321Z,20.07
2019-04-23T10:06:14.546Z,16.70
2019-04-23T10:08:46.452Z,16.50
2019-04-23T10:11:13.618Z,14.43
2019-04-23T10:13:45.052Z,16.63
2019-04-23T10:16:19.232Z,18.27
2019-04-23T10:18:50.994Z,17.57
2019-04-23T10:21:21.705Z,15.77
2019-04-23T10:23:52.224Z,19.80
2019-04-23T10:26:22.137Z,25.13
2019-04-23T10:28:59.744Z,28.50
2019-04-23T10:31:31.328Z,27.43
2019-04-23T10:34:02.105Z,21.60
2019-04-23T10:36:34.552Z,24.87
2019-04-23T10:39:14.197Z,19.23
2019-04-23T10:41:42.262Z,15.60
2019-04-23T10:44:21.558Z,19.40
2019-04-23T10:47:38.524Z,21.13
2019-04-23T10:50:28.265Z,21.97
2019-04-23T10:53:25.890Z,18.63
2019-04-23T10:56:05.833Z,20.43
2019-04-23T10:58:24.913Z,23.73
2019-04-23T11:00:59.291Z,18.13
2019-04-23T11:06:16.527Z,15.47
2019-04-23T11:08:37.024Z,14.40
2019-04-23T11:11:16.958Z,18.93
2019-04-23T11:13:46.721Z,22.43
2019-04-23T11:18:56.682Z,15.87
2019-04-23T11:21:28.676Z,19.23
2019-04-23T11:24:32.942Z,16.83
2019-04-23T11:29:20.368Z,14.57
2019-04-23T11:32:22.048Z,14.53
2019-04-23T11:34:44.420Z,15.43
2019-04-23T11:39:30.972Z,14.43
2019-04-23T11:42:28.076Z,22.20
2019-04-23T11:44:36.783Z,19.00
2019-04-23T11:47:41.684Z,18.17
2019-04-23T11:54:39.427Z,15.50
2019-04-23T12:02:43.322Z,22.40
2019-04-23T12:05:54.701Z,15.00
2019-04-23T12:08:34.929Z,16.87
2019-04-23T12:11:40.989Z,20.43
2019-04-23T12:14:02.542Z,15.23
2019-04-23T12:16:43.505Z,25.33
2019-04-23T12:19:44.061Z,16.80
2019-04-23T12:22:02.997Z,19.77
2019-04-23T12:27:01.027Z,21.03
2019-04-23T12:29:35.284Z,19.73
2019-04-23T12:32:37.454Z,23.30
2019-04-23T12:37:47.753Z,19.20
2019-04-23T12:40:31.115Z,18.10
2019-04-23T12:48:20.419Z,15.00
2019-04-23T12:50:48.719Z,18.30
2019-04-23T12:53:19.632Z,16.20
2019-04-23T12:58:21.937Z,22.80
2019-04-23T13:00:48.237Z,16.23
2019-04-23T13:03:25.176Z,16.63
2019-04-23T13:05:46.829Z,15.63
2019-04-23T13:08:34.051Z,17.97
2019-04-23T13:10:57.706Z,22.80
2019-04-23T13:13:28.006Z,21.47
2019-04-23T13:16:05.854Z,16.83
2019-04-23T13:21:07.065Z,20.20
2019-04-23T13:23:37.464Z,19.13
2019-04-23T13:26:04.479Z,24.20
2019-04-23T13:29:00.887Z,16.23
2019-04-23T13:34:22.647Z,20.93
2019-04-23T13:37:13.687Z,22.53
2019-04-23T13:39:28.998Z,17.43
2019-04-23T13:41:53.993Z,16.07
2019-04-23T13:44:25.868Z,16.13
2019-04-23T13:47:00.964Z,17.67
2019-04-23T13:49:35.028Z,15.67
2019-04-23T13:52:05.965Z,15.20
2019-04-23T13:55:04.362Z,16.67
2019-04-23T13:57:59.191Z,17.40
2019-04-23T14:00:07.136Z,23.87
2019-04-23T14:02:38.396Z,16.30
2019-04-23T14:05:23.809Z,17.90
2019-04-23T14:07:56.516Z,18.80
2019-04-23T14:10:31.222Z,21.03
2019-04-23T14:13:10.537Z,18.40
2019-04-23T14:15:39.219Z,15.30
2019-04-23T14:18:48.552Z,16.87
2019-04-23T14:20:52.001Z,18.80
2019-04-23T14:26:10.493Z,17.63
2019-04-23T14:33:46.331Z,20.70
2019-04-23T14:44:05.673Z,15.00
2019-04-23T14:46:41.396Z,22.90
2019-04-23T14:49:44.792Z,20.50
2019-04-23T14:52:06.147Z,20.67
2019-04-23T14:57:17.035Z,14.73
2019-04-23T14:59:45.102Z,22.60
2019-04-23T15:02:22.803Z,24.47
2019-04-23T15:04:47.476Z,18.90
2019-04-23T15:07:22.831Z,17.57
2019-04-23T15:09:57.751Z,17.80
2019-04-23T15:12:33.594Z,19.40
2019-04-23T15:15:13.972Z,18.27
2019-04-23T15:18:01.736Z,17.33
2019-04-23T15:23:24.715Z,19.20
2019-04-23T15:25:43.929Z,17.63
2019-04-23T15:27:29.420Z,21.53
2019-04-23T15:28:06.895Z,17.23
2019-04-23T15:30:45.909Z,17.10
2019-04-23T15:33:27.184Z,23.80
2019-04-23T15:40:59.050Z,17.33
2019-04-23T15:43:33.845Z,18.80
2019-04-23T15:46:02.889Z,22.33
2019-04-23T15:48:31.953Z,15.60
2019-04-23T15:51:12.465Z,16.87
2019-04-23T15:53:31.077Z,22.00
2019-04-23T15:59:13.563Z,16.00
2019-04-23T16:03:38.217Z,23.33
2019-04-23T16:06:10.856Z,15.83
2019-04-23T16:19:25.825Z,19.27
2019-04-23T16:22:01.875Z,21.30
2019-04-23T16:24:22.127Z,20.80
2019-04-23T16:27:16.753Z,17.50
2019-04-23T16:32:08.428Z,22.80
2019-04-23T16:34:56.660Z,24.03
2019-04-23T16:37:29.208Z,23.13
2019-04-23T16:40:08.078Z,18.10
2019-04-23T16:42:33.741Z,17.53
2019-04-23T16:47:40.112Z,24.60
2019-04-23T16:50:14.246Z,22.13
2019-04-23T16:52:32.380Z,31.33
2019-04-23T16:55:07.536Z,21.77
2019-04-23T16:57:45.886Z,19.67
2019-04-23T17:02:50.641Z,19.03
2019-04-23T17:05:21.634Z,16.30
2019-04-23T17:08:30.656Z,20.70
2019-04-23T17:10:43.703Z,19.27
2019-04-23T17:13:14.229Z,20.43
2019-04-23T17:15:53.521Z,21.73
2019-04-23T17:18:16.734Z,24.13
2019-04-23T17:25:55.902Z,23.80
2019-04-23T17:28:23.310Z,17.97
2019-04-23T17:33:41.601Z,22.33
2019-04-23T17:36:32.050Z,29.17
2019-04-23T17:42:18.458Z,25.20
2019-04-23T17:44:42.504Z,20.50
2019-04-23T17:47:31.288Z,24.53
2019-04-23T17:50:12.191Z,21.17
2019-04-23T17:52:35.680Z,20.30
2019-04-23T17:55:21.852Z,27.20
2019-04-23T17:58:03.457Z,18.93
2019-04-23T18:05:23.630Z,27.73
2019-04-23T18:07:59.126Z,20.47
2019-04-23T18:13:04.339Z,28.50
2019-04-23T18:15:41.935Z,27.13
2019-04-23T18:18:10.324Z,30.30
2019-04-23T18:23:34.481Z,30.27
2019-04-23T18:26:17.540Z,23.23
2019-04-23T18:28:48.107Z,22.93
2019-04-23T18:31:19.822Z,26.03
2019-04-23T18:34:12.535Z,19.13
2019-04-23T18:36:48.197Z,26.13
2019-04-23T18:39:24.169Z,23.90
2019-04-23T18:42:06.518Z,24.90
2019-04-23T18:44:34.929Z,23.10
2019-04-23T18:47:20.966Z,25.90
2019-04-23T18:49:35.428Z,25.80
2019-04-23T18:52:03.182Z,23.43
2019-04-23T18:54:34.799Z,23.93
2019-04-23T19:08:07.611Z,28.40
2019-04-23T19:10:53.740Z,24.40
2019-04-23T19:16:04.054Z,28.93
2019-04-23T19:18:35.986Z,27.87
2019-04-23T19:21:09.319Z,25.67
2019-04-23T19:23:39.388Z,27.70
2019-04-23T19:26:25.305Z,23.00
2019-04-23T19:28:53.033Z,23.73
2019-04-23T19:31:26.072Z,29.50
2019-04-23T19:34:13.941Z,26.60
2019-04-23T19:36:51.044Z,26.23
2019-04-23T19:39:11.948Z,21.77
2019-04-23T19:41:57.699Z,33.17
2019-04-23T19:44:31.366Z,29.20
2019-04-23T19:49:40.585Z,33.00
2019-04-23T19:52:34.146Z,28.63
2019-04-23T19:57:37.610Z,27.23
2019-04-23T20:02:55.455Z,26.43
2019-04-23T20:04:59.610Z,25.33
2019-04-23T20:07:52.207Z,38.20
2019-04-23T20:10:28.202Z,25.20
2019-04-23T20:13:02.078Z,30.43
2019-04-23T20:15:42.801Z,26.70
2019-04-23T20:17:59.517Z,25.97
2019-04-23T20:20:42.113Z,25.30
2019-04-23T20:23:36.517Z,32.07
2019-04-23T20:26:02.778Z,29.00
2019-04-23T20:32:03.175Z,36.40
2019-04-23T20:36:49.235Z,22.30
2019-04-23T20:39:16.617Z,26.23
2019-04-23T20:52:13.779Z,30.43
2019-04-23T20:55:02.626Z,32.77
2019-04-23T21:00:12.370Z,32.87
2019-04-23T21:05:27.916Z,31.50
2019-04-23T21:08:14.769Z,31.00
2019-04-23T21:13:53.886Z,38.00
2019-04-23T21:15:58.339Z,27.63
2019-04-23T21:18:37.468Z,34.30
2019-04-23T21:21:11.887Z,33.07
2019-04-23T21:23:47.499Z,29.00
2019-04-23T21:26:01.614Z,31.20
2019-04-23T21:28:58.716Z,31.17
2019-04-23T21:31:40.317Z,31.87
2019-04-23T21:36:45.764Z,31.97
2019-04-23T21:39:40.721Z,31.70
2019-04-23T21:42:14.825Z,29.30
2019-04-23T21:44:40.804Z,34.10
2019-04-23T21:47:41.751Z,28.47
2019-04-23T21:50:08.444Z,28.23
2019-04-23T21:52:20.499Z,32.00
2019-04-23T21:54:57.366Z,27.30
2019-04-23T21:57:37.401Z,27.03
2019-04-23T22:00:02.603Z,28.73
2019-04-23T22:02:49.207Z,29.10
2019-04-23T22:05:09.283Z,27.93
2019-04-23T22:07:51.886Z,35.90
2019-04-23T22:10:09.205Z,29.40
2019-04-23T22:12:54.739Z,30.77
2019-04-23T22:15:13.310Z,29.43
2019-04-23T22:23:13.867Z,30.67
2019-04-23T22:25:48.858Z,32.50
2019-04-23T22:28:52.386Z,25.13
2019-04-23T22:31:29.581Z,29.00
2019-04-23T22:33:46.988Z,30.50
2019-04-23T22:38:43.503Z,29.57
2019-04-23T22:41:21.509Z,23.40
2019-04-23T22:44:24.581Z,29.80
2019-04-23T22:51:55.398Z,33.10
2019-04-23T22:54:22.504Z,32.23
2019-04-23T22:56:56.256Z,29.97
2019-04-23T23:02:07.402Z,31.83
2019-04-23T23:04:51.537Z,32.37
2019-04-23T23:07:19.672Z,28.37
2019-04-23T23:12:21.341Z,36.70
2019-04-23T23:14:57.448Z,33.53
2019-04-23T23:17:20.684Z,33.07
2019-04-23T23:20:01.761Z,35.63
2019-04-23T23:22:33.984Z,29.10
2019-04-23T23:25:18.892Z,30.07
2019-04-23T23:27:55.128Z,29.10
2019-04-23T23:30:19.721Z,31.90
2019-04-23T23:37:54.071Z,33.73
2019-04-23T23:43:07.241Z,36.07
2019-04-23T23:45:31.559Z,43.93
2019-04-23T23:47:59.299Z,32.17
2019-04-23T23:55:38.637Z,31.00
2019-04-23T23:58:16.183Z,33.50
